sensor_id;sensor_type;location;lat;lon;timestamp;pressure;altitude;pressure_sealevel;temperature;humidity
69689;BME280;56932;38.402;-96.176;2023-02-22T00:00:15;95622.11;;;19.41;23.80
69689;BME280;56932;38.402;-96.176;2023-02-22T00:02:39;95619.77;;;18.83;24.55
69689;BME280;56932;38.402;-96.176;2023-02-22T00:05:04;95618.07;;;19.91;23.67
69689;BME280;56932;38.402;-96.176;2023-02-22T00:07:29;95620.87;;;19.44;24.99
69689;BME280;56932;38.402;-96.176;2023-02-22T00:09:56;95622.45;;;18.95;24.93
69689;BME280;56932;38.402;-96.176;2023-02-22T00:12:21;95620.50;;;20.03;24.36
69689;BME280;56932;38.402;-96.176;2023-02-22T00:14:46;95608.84;;;19.19;25.34
69689;BME280;56932;38.402;-96.176;2023-02-22T00:17:11;95600.14;;;19.59;25.70
69689;BME280;56932;38.402;-96.176;2023-02-22T00:19:37;95592.27;;;20.50;24.82
69689;BME280;56932;38.402;-96.176;2023-02-22T00:22:02;95579.48;;;19.68;26.62
69689;BME280;56932;38.402;-96.176;2023-02-22T00:24:28;95576.12;;;20.39;26.01
69689;BME280;56932;38.402;-96.176;2023-02-22T00:26:54;95579.00;;;19.29;27.08
69689;BME280;56932;38.402;-96.176;2023-02-22T00:29:19;95579.45;;;19.81;26.44
69689;BME280;56932;38.402;-96.176;2023-02-22T00:31:45;95576.15;;;19.65;25.25
69689;BME280;56932;38.402;-96.176;2023-02-22T00:34:12;95580.08;;;20.99;23.93
69689;BME280;56932;38.402;-96.176;2023-02-22T00:36:36;95573.51;;;21.35;23.24
69689;BME280;56932;38.402;-96.176;2023-02-22T00:39:02;95570.65;;;20.66;23.33
69689;BME280;56932;38.402;-96.176;2023-02-22T00:41:27;95562.28;;;20.18;23.81
69689;BME280;56932;38.402;-96.176;2023-02-22T00:43:52;95561.07;;;20.46;22.97
69689;BME280;56932;38.402;-96.176;2023-02-22T00:46:18;95563.33;;;21.11;22.62
69689;BME280;56932;38.402;-96.176;2023-02-22T00:48:44;95559.77;;;20.19;22.89
69689;BME280;56932;38.402;-96.176;2023-02-22T00:51:09;95557.99;;;20.40;23.06
69689;BME280;56932;38.402;-96.176;2023-02-22T00:53:35;95560.71;;;21.32;22.43
69689;BME280;56932;38.402;-96.176;2023-02-22T00:56:00;95560.41;;;20.62;22.74
69689;BME280;56932;38.402;-96.176;2023-02-22T00:58:26;95559.43;;;20.97;22.39
69689;BME280;56932;38.402;-96.176;2023-02-22T01:00:52;95569.73;;;20.79;22.26
69689;BME280;56932;38.402;-96.176;2023-02-22T01:03:19;95566.37;;;20.23;23.21
69689;BME280;56932;38.402;-96.176;2023-02-22T01:05:44;95565.08;;;20.30;22.35
69689;BME280;56932;38.402;-96.176;2023-02-22T01:08:10;95558.10;;;19.94;22.94
69689;BME280;56932;38.402;-96.176;2023-02-22T01:10:35;95549.56;;;20.02;23.11
69689;BME280;56932;38.402;-96.176;2023-02-22T01:13:00;95551.42;;;20.02;22.62
69689;BME280;56932;38.402;-96.176;2023-02-22T01:15:27;95550.80;;;20.98;21.78
69689;BME280;56932;38.402;-96.176;2023-02-22T01:17:51;95545.17;;;20.55;22.04
69689;BME280;56932;38.402;-96.176;2023-02-22T01:20:17;95547.22;;;20.91;21.74
69689;BME280;56932;38.402;-96.176;2023-02-22T01:22:44;95532.97;;;20.45;21.85
69689;BME280;56932;38.402;-96.176;2023-02-22T01:25:08;95529.88;;;20.64;22.10
69689;BME280;56932;38.402;-96.176;2023-02-22T01:27:33;95533.28;;;20.28;22.44
69689;BME280;56932;38.402;-96.176;2023-02-22T01:29:58;95535.72;;;20.06;22.40
69689;BME280;56932;38.402;-96.176;2023-02-22T01:32:24;95527.37;;;20.76;22.00
69689;BME280;56932;38.402;-96.176;2023-02-22T01:34:52;95519.29;;;19.77;22.57
69689;BME280;56932;38.402;-96.176;2023-02-22T01:37:15;95515.87;;;19.98;22.41
69689;BME280;56932;38.402;-96.176;2023-02-22T01:39:41;95507.65;;;20.04;22.09
69689;BME280;56932;38.402;-96.176;2023-02-22T01:42:06;95509.32;;;20.59;21.87
69689;BME280;56932;38.402;-96.176;2023-02-22T01:44:34;95500.41;;;20.44;21.94
69689;BME280;56932;38.402;-96.176;2023-02-22T01:46:59;95499.92;;;21.05;21.49
69689;BME280;56932;38.402;-96.176;2023-02-22T01:49:24;95499.55;;;20.76;22.05
69689;BME280;56932;38.402;-96.176;2023-02-22T01:51:50;95506.29;;;20.49;21.89
69689;BME280;56932;38.402;-96.176;2023-02-22T01:54:17;95502.42;;;20.48;21.95
69689;BME280;56932;38.402;-96.176;2023-02-22T01:56:45;95484.54;;;20.07;22.25
69689;BME280;56932;38.402;-96.176;2023-02-22T01:59:07;95492.32;;;20.66;21.74
69689;BME280;56932;38.402;-96.176;2023-02-22T02:01:30;95488.99;;;20.74;21.85
69689;BME280;56932;38.402;-96.176;2023-02-22T02:03:58;95485.51;;;20.04;22.20
69689;BME280;56932;38.402;-96.176;2023-02-22T02:06:21;95479.88;;;21.10;21.56
69689;BME280;56932;38.402;-96.176;2023-02-22T02:08:54;95471.28;;;20.30;21.63
69689;BME280;56932;38.402;-96.176;2023-02-22T02:11:13;95464.84;;;20.91;21.53
69689;BME280;56932;38.402;-96.176;2023-02-22T02:13:38;95449.65;;;21.14;21.29
69689;BME280;56932;38.402;-96.176;2023-02-22T02:16:04;95457.32;;;20.83;21.55
69689;BME280;56932;38.402;-96.176;2023-02-22T02:18:29;95460.04;;;20.65;21.68
69689;BME280;56932;38.402;-96.176;2023-02-22T02:33:05;95445.58;;;20.42;21.79
69689;BME280;56932;38.402;-96.176;2023-02-22T02:35:35;95445.44;;;20.65;21.62
69689;BME280;56932;38.402;-96.176;2023-02-22T02:38:00;95445.03;;;20.73;21.56
69689;BME280;56932;38.402;-96.176;2023-02-22T02:40:22;95441.05;;;20.80;21.83
69689;BME280;56932;38.402;-96.176;2023-02-22T02:42:50;95443.41;;;20.31;21.51
69689;BME280;56932;38.402;-96.176;2023-02-22T02:45:14;95436.14;;;19.96;22.26
69689;BME280;56932;38.402;-96.176;2023-02-22T02:47:39;95431.45;;;20.41;21.87
69689;BME280;56932;38.402;-96.176;2023-02-22T02:50:06;95425.72;;;20.95;21.44
69689;BME280;56932;38.402;-96.176;2023-02-22T02:52:28;95431.05;;;20.09;22.32
69689;BME280;56932;38.402;-96.176;2023-02-22T02:54:53;95423.28;;;20.04;22.17
69689;BME280;56932;38.402;-96.176;2023-02-22T02:57:18;95428.37;;;20.85;21.51
69689;BME280;56932;38.402;-96.176;2023-02-22T02:59:44;95424.75;;;20.01;21.78
69689;BME280;56932;38.402;-96.176;2023-02-22T03:02:19;95419.01;;;20.68;21.69
69689;BME280;56932;38.402;-96.176;2023-02-22T03:04:47;95418.13;;;20.31;22.07
69689;BME280;56932;38.402;-96.176;2023-02-22T03:07:10;95415.09;;;21.23;21.22
69689;BME280;56932;38.402;-96.176;2023-02-22T03:09:37;95407.38;;;20.86;21.46
69689;BME280;56932;38.402;-96.176;2023-02-22T03:11:58;95399.29;;;20.72;21.62
69689;BME280;56932;38.402;-96.176;2023-02-22T03:14:22;95392.52;;;20.95;21.46
69689;BME280;56932;38.402;-96.176;2023-02-22T03:16:45;95387.08;;;20.35;21.73
69689;BME280;56932;38.402;-96.176;2023-02-22T03:19:11;95378.28;;;21.22;21.46
69689;BME280;56932;38.402;-96.176;2023-02-22T03:21:40;95373.05;;;21.27;21.43
69689;BME280;56932;38.402;-96.176;2023-02-22T03:24:05;95379.69;;;20.78;21.68
69689;BME280;56932;38.402;-96.176;2023-02-22T03:26:34;95377.99;;;20.99;21.50
69689;BME280;56932;38.402;-96.176;2023-02-22T03:28:51;95368.97;;;20.47;21.91
69689;BME280;56932;38.402;-96.176;2023-02-22T03:31:18;95370.93;;;21.28;21.64
69689;BME280;56932;38.402;-96.176;2023-02-22T03:33:43;95380.97;;;20.44;22.07
69689;BME280;56932;38.402;-96.176;2023-02-22T03:36:11;95373.48;;;20.92;22.03
69689;BME280;56932;38.402;-96.176;2023-02-22T03:38:32;95377.43;;;20.14;22.45
69689;BME280;56932;38.402;-96.176;2023-02-22T03:41:00;95379.23;;;19.69;22.60
69689;BME280;56932;38.402;-96.176;2023-02-22T03:43:26;95381.41;;;19.61;22.65
69689;BME280;56932;38.402;-96.176;2023-02-22T03:45:49;95378.38;;;19.41;22.74
69689;BME280;56932;38.402;-96.176;2023-02-22T03:48:20;95379.73;;;20.30;22.41
69689;BME280;56932;38.402;-96.176;2023-02-22T03:50:39;95377.74;;;19.78;22.75
69689;BME280;56932;38.402;-96.176;2023-02-22T03:53:05;95374.72;;;19.35;23.14
69689;BME280;56932;38.402;-96.176;2023-02-22T03:55:30;95371.71;;;19.79;22.75
69689;BME280;56932;38.402;-96.176;2023-02-22T03:57:58;95363.25;;;18.97;22.96
69689;BME280;56932;38.402;-96.176;2023-02-22T04:00:23;95362.37;;;18.45;23.36
69689;BME280;56932;38.402;-96.176;2023-02-22T04:02:47;95366.76;;;19.05;22.67
69689;BME280;56932;38.402;-96.176;2023-02-22T04:05:12;95360.85;;;19.26;23.11
69689;BME280;56932;38.402;-96.176;2023-02-22T04:07:38;95361.42;;;19.64;22.74
69689;BME280;56932;38.402;-96.176;2023-02-22T04:10:04;95357.76;;;19.24;22.88
69689;BME280;56932;38.402;-96.176;2023-02-22T04:12:29;95358.66;;;19.54;22.77
69689;BME280;56932;38.402;-96.176;2023-02-22T04:14:55;95354.82;;;19.02;22.79
69689;BME280;56932;38.402;-96.176;2023-02-22T04:17:20;95343.25;;;18.73;23.37
69689;BME280;56932;38.402;-96.176;2023-02-22T04:19:46;95331.33;;;18.54;22.92
69689;BME280;56932;38.402;-96.176;2023-02-22T04:22:11;95342.60;;;19.30;22.85
69689;BME280;56932;38.402;-96.176;2023-02-22T04:24:37;95336.46;;;19.88;22.31
69689;BME280;56932;38.402;-96.176;2023-02-22T04:27:03;95329.77;;;19.32;22.78
69689;BME280;56932;38.402;-96.176;2023-02-22T04:29:28;95318.47;;;18.64;23.32
69689;BME280;56932;38.402;-96.176;2023-02-22T04:31:54;95321.13;;;18.46;23.24
69689;BME280;56932;38.402;-96.176;2023-02-22T04:34:20;95332.05;;;19.33;22.72
69689;BME280;56932;38.402;-96.176;2023-02-22T04:36:45;95324.27;;;18.57;22.97
69689;BME280;56932;38.402;-96.176;2023-02-22T04:39:10;95317.83;;;18.63;23.26
69689;BME280;56932;38.402;-96.176;2023-02-22T04:41:36;95310.19;;;18.83;23.36
69689;BME280;56932;38.402;-96.176;2023-02-22T04:44:02;95316.85;;;19.24;22.77
69689;BME280;56932;38.402;-96.176;2023-02-22T04:46:27;95322.07;;;19.68;22.57
69689;BME280;56932;38.402;-96.176;2023-02-22T04:48:53;95322.53;;;18.25;23.31
69689;BME280;56932;38.402;-96.176;2023-02-22T04:51:19;95313.57;;;18.82;23.07
69689;BME280;56932;38.402;-96.176;2023-02-22T04:53:44;95322.34;;;18.57;22.87
69689;BME280;56932;38.402;-96.176;2023-02-22T04:56:10;95309.63;;;18.12;23.66
69689;BME280;56932;38.402;-96.176;2023-02-22T04:58:35;95302.86;;;19.23;22.95
69689;BME280;56932;38.402;-96.176;2023-02-22T05:01:01;95305.02;;;18.59;23.29
69689;BME280;56932;38.402;-96.176;2023-02-22T05:03:26;95312.14;;;19.03;23.31
69689;BME280;56932;38.402;-96.176;2023-02-22T05:05:52;95316.81;;;18.59;23.29
69689;BME280;56932;38.402;-96.176;2023-02-22T05:08:17;95311.79;;;17.95;23.75
69689;BME280;56932;38.402;-96.176;2023-02-22T05:10:43;95303.01;;;18.06;23.29
69689;BME280;56932;38.402;-96.176;2023-02-22T05:13:08;95298.08;;;18.45;23.35
69689;BME280;56932;38.402;-96.176;2023-02-22T05:15:34;95290.00;;;18.38;23.63
69689;BME280;56932;38.402;-96.176;2023-02-22T05:18:00;95291.00;;;18.93;22.92
69689;BME280;56932;38.402;-96.176;2023-02-22T05:20:27;95281.54;;;19.37;22.75
69689;BME280;56932;38.402;-96.176;2023-02-22T05:22:51;95266.30;;;18.20;23.38
69689;BME280;56932;38.402;-96.176;2023-02-22T05:25:17;95261.74;;;18.57;23.45
69689;BME280;56932;38.402;-96.176;2023-02-22T05:27:42;95255.38;;;18.27;23.09
69689;BME280;56932;38.402;-96.176;2023-02-22T05:30:09;95254.30;;;18.59;23.63
69689;BME280;56932;38.402;-96.176;2023-02-22T05:32:33;95252.01;;;18.96;23.29
69689;BME280;56932;38.402;-96.176;2023-02-22T05:34:59;95239.37;;;18.30;23.45
69689;BME280;56932;38.402;-96.176;2023-02-22T05:37:24;95232.13;;;19.30;22.60
69689;BME280;56932;38.402;-96.176;2023-02-22T05:39:50;95225.74;;;18.59;23.18
69689;BME280;56932;38.402;-96.176;2023-02-22T05:42:16;95225.17;;;17.65;24.20
69689;BME280;56932;38.402;-96.176;2023-02-22T05:44:41;95221.71;;;18.28;23.51
69689;BME280;56932;38.402;-96.176;2023-02-22T05:47:07;95223.57;;;18.32;23.67
69689;BME280;56932;38.402;-96.176;2023-02-22T05:49:32;95216.54;;;18.57;23.47
69689;BME280;56932;38.402;-96.176;2023-02-22T05:51:58;95208.90;;;18.52;23.32
69689;BME280;56932;38.402;-96.176;2023-02-22T05:54:23;95212.55;;;18.44;23.39
69689;BME280;56932;38.402;-96.176;2023-02-22T05:56:49;95205.84;;;18.50;23.16
69689;BME280;56932;38.402;-96.176;2023-02-22T05:59:15;95197.27;;;18.26;23.86
69689;BME280;56932;38.402;-96.176;2023-02-22T06:01:41;95196.27;;;18.27;23.73
69689;BME280;56932;38.402;-96.176;2023-02-22T06:04:06;95189.32;;;18.32;23.71
69689;BME280;56932;38.402;-96.176;2023-02-22T06:06:31;95182.82;;;18.56;23.48
69689;BME280;56932;38.402;-96.176;2023-02-22T06:08:57;95182.56;;;18.59;23.48
69689;BME280;56932;38.402;-96.176;2023-02-22T06:11:22;95183.46;;;19.25;23.23
69689;BME280;56932;38.402;-96.176;2023-02-22T06:13:50;95174.38;;;18.45;23.71
69689;BME280;56932;38.402;-96.176;2023-02-22T06:16:14;95174.85;;;18.41;23.77
69689;BME280;56932;38.402;-96.176;2023-02-22T06:18:40;95162.55;;;19.11;23.40
69689;BME280;56932;38.402;-96.176;2023-02-22T06:21:08;95171.24;;;18.70;23.78
69689;BME280;56932;38.402;-96.176;2023-02-22T06:23:30;95181.08;;;18.70;23.58
69689;BME280;56932;38.402;-96.176;2023-02-22T06:25:56;95181.96;;;18.51;24.09
69689;BME280;56932;38.402;-96.176;2023-02-22T06:28:22;95193.22;;;18.85;23.80
69689;BME280;56932;38.402;-96.176;2023-02-22T06:30:47;95194.45;;;18.07;23.94
69689;BME280;56932;38.402;-96.176;2023-02-22T06:33:13;95198.19;;;18.50;24.02
69689;BME280;56932;38.402;-96.176;2023-02-22T06:35:39;95195.39;;;18.26;24.28
69689;BME280;56932;38.402;-96.176;2023-02-22T06:38:04;95189.03;;;18.57;24.27
69689;BME280;56932;38.402;-96.176;2023-02-22T06:40:30;95199.35;;;18.03;24.77
69689;BME280;56932;38.402;-96.176;2023-02-22T06:42:56;95196.81;;;18.30;24.43
69689;BME280;56932;38.402;-96.176;2023-02-22T06:45:21;95200.15;;;18.98;24.29
69689;BME280;56932;38.402;-96.176;2023-02-22T06:47:47;95192.64;;;17.75;24.57
69689;BME280;56932;38.402;-96.176;2023-02-22T06:50:18;95199.94;;;18.42;24.39
69689;BME280;56932;38.402;-96.176;2023-02-22T06:52:42;95207.19;;;18.74;24.38
69689;BME280;56932;38.402;-96.176;2023-02-22T06:55:04;95211.34;;;18.69;24.46
69689;BME280;56932;38.402;-96.176;2023-02-22T06:57:29;95214.39;;;18.57;24.67
69689;BME280;56932;38.402;-96.176;2023-02-22T06:59:54;95223.50;;;18.46;24.35
69689;BME280;56932;38.402;-96.176;2023-02-22T07:02:20;95218.61;;;18.70;24.65
69689;BME280;56932;38.402;-96.176;2023-02-22T07:04:46;95236.79;;;17.63;25.00
69689;BME280;56932;38.402;-96.176;2023-02-22T07:07:11;95255.01;;;18.59;24.53
69689;BME280;56932;38.402;-96.176;2023-02-22T07:09:37;95291.05;;;19.38;24.31
69689;BME280;56932;38.402;-96.176;2023-02-22T07:12:02;95315.88;;;18.58;24.43
69689;BME280;56932;38.402;-96.176;2023-02-22T07:14:27;95348.16;;;18.52;24.61
69689;BME280;56932;38.402;-96.176;2023-02-22T07:16:53;95363.78;;;18.66;24.58
69689;BME280;56932;38.402;-96.176;2023-02-22T07:19:18;95381.78;;;18.05;25.43
69689;BME280;56932;38.402;-96.176;2023-02-22T07:21:44;95368.74;;;18.33;24.50
69689;BME280;56932;38.402;-96.176;2023-02-22T07:24:10;95380.26;;;18.36;24.91
69689;BME280;56932;38.402;-96.176;2023-02-22T07:26:39;95415.14;;;18.47;24.80
69689;BME280;56932;38.402;-96.176;2023-02-22T07:29:01;95399.20;;;18.73;24.65
69689;BME280;56932;38.402;-96.176;2023-02-22T07:31:26;95343.94;;;18.98;24.92
69689;BME280;56932;38.402;-96.176;2023-02-22T07:33:52;95324.65;;;17.59;25.78
69689;BME280;56932;38.402;-96.176;2023-02-22T07:36:18;95317.28;;;18.54;24.95
69689;BME280;56932;38.402;-96.176;2023-02-22T07:38:44;95303.24;;;18.56;24.55
69689;BME280;56932;38.402;-96.176;2023-02-22T07:41:09;95294.77;;;19.37;24.52
69689;BME280;56932;38.402;-96.176;2023-02-22T07:43:35;95287.30;;;18.22;25.39
69689;BME280;56932;38.402;-96.176;2023-02-22T07:46:00;95288.98;;;18.65;24.94
69689;BME280;56932;38.402;-96.176;2023-02-22T07:48:27;95291.89;;;18.92;24.95
69689;BME280;56932;38.402;-96.176;2023-02-22T07:50:51;95285.83;;;18.24;25.43
69689;BME280;56932;38.402;-96.176;2023-02-22T07:53:18;95265.07;;;18.22;25.45
69689;BME280;56932;38.402;-96.176;2023-02-22T07:55:43;95259.91;;;18.47;24.92
69689;BME280;56932;38.402;-96.176;2023-02-22T07:58:11;95259.00;;;18.99;24.65
69689;BME280;56932;38.402;-96.176;2023-02-22T08:00:35;95264.08;;;19.20;24.63
69689;BME280;56932;38.402;-96.176;2023-02-22T08:03:00;95262.50;;;18.19;25.63
69689;BME280;56932;38.402;-96.176;2023-02-22T08:05:26;95263.03;;;18.52;25.03
69689;BME280;56932;38.402;-96.176;2023-02-22T08:07:50;95276.73;;;18.56;24.96
69689;BME280;56932;38.402;-96.176;2023-02-22T08:10:16;95307.99;;;18.82;24.98
69689;BME280;56932;38.402;-96.176;2023-02-22T08:12:41;95327.27;;;18.77;24.70
69689;BME280;56932;38.402;-96.176;2023-02-22T08:15:12;95338.61;;;18.93;24.81
69689;BME280;56932;38.402;-96.176;2023-02-22T08:17:32;95345.25;;;18.94;24.95
69689;BME280;56932;38.402;-96.176;2023-02-22T08:19:58;95347.30;;;18.72;24.96
69689;BME280;56932;38.402;-96.176;2023-02-22T08:22:23;95335.66;;;18.99;24.65
69689;BME280;56932;38.402;-96.176;2023-02-22T08:24:49;95353.17;;;18.12;24.79
69689;BME280;56932;38.402;-96.176;2023-02-22T08:27:14;95365.86;;;18.94;24.72
69689;BME280;56932;38.402;-96.176;2023-02-22T08:29:40;95368.24;;;18.65;24.71
69689;BME280;56932;38.402;-96.176;2023-02-22T08:32:05;95365.64;;;18.39;24.89
69689;BME280;56932;38.402;-96.176;2023-02-22T08:34:31;95362.86;;;18.82;24.71
69689;BME280;56932;38.402;-96.176;2023-02-22T08:36:56;95364.98;;;18.69;24.62
69689;BME280;56932;38.402;-96.176;2023-02-22T08:39:22;95355.69;;;18.80;24.47
69689;BME280;56932;38.402;-96.176;2023-02-22T08:41:48;95339.38;;;17.73;24.75
69689;BME280;56932;38.402;-96.176;2023-02-22T08:44:13;95322.33;;;19.11;24.33
69689;BME280;56932;38.402;-96.176;2023-02-22T08:46:39;95280.42;;;19.15;24.27
69689;BME280;56932;38.402;-96.176;2023-02-22T08:49:05;95309.16;;;19.09;24.06
69689;BME280;56932;38.402;-96.176;2023-02-22T08:51:34;95287.91;;;19.42;23.96
69689;BME280;56932;38.402;-96.176;2023-02-22T08:53:55;95303.67;;;18.08;24.98
69689;BME280;56932;38.402;-96.176;2023-02-22T08:56:21;95311.58;;;18.87;24.20
69689;BME280;56932;38.402;-96.176;2023-02-22T08:58:47;95316.69;;;18.28;24.33
69689;BME280;56932;38.402;-96.176;2023-02-22T09:01:12;95317.94;;;18.73;24.28
69689;BME280;56932;38.402;-96.176;2023-02-22T09:03:38;95304.40;;;19.35;23.93
69689;BME280;56932;38.402;-96.176;2023-02-22T09:06:04;95293.68;;;18.91;24.08
69689;BME280;56932;38.402;-96.176;2023-02-22T09:08:29;95297.38;;;18.55;24.44
69689;BME280;56932;38.402;-96.176;2023-02-22T09:10:55;95287.97;;;18.90;24.07
69689;BME280;56932;38.402;-96.176;2023-02-22T09:13:20;95288.24;;;18.52;24.64
69689;BME280;56932;38.402;-96.176;2023-02-22T09:15:46;95300.95;;;18.09;24.39
69689;BME280;56932;38.402;-96.176;2023-02-22T09:18:12;95311.75;;;19.13;24.07
69689;BME280;56932;38.402;-96.176;2023-02-22T09:20:37;95314.77;;;19.07;24.33
69689;BME280;56932;38.402;-96.176;2023-02-22T09:23:02;95321.60;;;19.08;24.10
69689;BME280;56932;38.402;-96.176;2023-02-22T09:25:28;95322.98;;;18.65;24.27
69689;BME280;56932;38.402;-96.176;2023-02-22T09:27:54;95339.72;;;19.12;23.85
69689;BME280;56932;38.402;-96.176;2023-02-22T09:30:23;95379.66;;;19.32;24.11
69689;BME280;56932;38.402;-96.176;2023-02-22T09:32:44;95398.63;;;18.26;24.23
69689;BME280;56932;38.402;-96.176;2023-02-22T09:35:10;95399.32;;;18.95;24.24
69689;BME280;56932;38.402;-96.176;2023-02-22T09:37:35;95397.67;;;18.40;24.78
69689;BME280;56932;38.402;-96.176;2023-02-22T09:40:01;95395.20;;;18.77;24.25
69689;BME280;56932;38.402;-96.176;2023-02-22T09:42:30;95394.77;;;19.38;23.88
69689;BME280;56932;38.402;-96.176;2023-02-22T09:44:58;95389.50;;;18.42;24.28
69689;BME280;56932;38.402;-96.176;2023-02-22T09:47:20;95368.39;;;18.56;24.33
69689;BME280;56932;38.402;-96.176;2023-02-22T09:49:52;95349.08;;;18.59;23.90
69689;BME280;56932;38.402;-96.176;2023-02-22T09:52:15;95329.15;;;19.08;24.09
69689;BME280;56932;38.402;-96.176;2023-02-22T09:54:39;95314.94;;;17.63;25.43
69689;BME280;56932;38.402;-96.176;2023-02-22T09:57:04;95320.87;;;18.17;24.77
69689;BME280;56932;38.402;-96.176;2023-02-22T09:59:30;95314.99;;;18.98;24.43
69689;BME280;56932;38.402;-96.176;2023-02-22T10:01:57;95314.60;;;18.19;24.28
69689;BME280;56932;38.402;-96.176;2023-02-22T10:04:21;95308.05;;;18.95;24.18
69689;BME280;56932;38.402;-96.176;2023-02-22T10:06:48;95279.08;;;18.30;24.13
69689;BME280;56932;38.402;-96.176;2023-02-22T10:09:10;95241.02;;;18.32;24.51
69689;BME280;56932;38.402;-96.176;2023-02-22T10:11:45;95222.07;;;18.53;24.58
69689;BME280;56932;38.402;-96.176;2023-02-22T10:14:07;95225.41;;;18.66;24.21
69689;BME280;56932;38.402;-96.176;2023-02-22T10:16:28;95241.96;;;18.38;24.66
69689;BME280;56932;38.402;-96.176;2023-02-22T10:19:01;95253.45;;;18.23;24.16
69689;BME280;56932;38.402;-96.176;2023-02-22T10:21:26;95269.16;;;19.10;23.76
69689;BME280;56932;38.402;-96.176;2023-02-22T10:23:47;95265.41;;;19.10;23.70
69689;BME280;56932;38.402;-96.176;2023-02-22T10:26:15;95250.36;;;18.68;24.12
69689;BME280;56932;38.402;-96.176;2023-02-22T10:28:36;95238.15;;;19.30;23.81
69689;BME280;56932;38.402;-96.176;2023-02-22T10:31:03;95244.88;;;18.75;24.06
69689;BME280;56932;38.402;-96.176;2023-02-22T10:33:26;95257.36;;;19.08;24.01
69689;BME280;56932;38.402;-96.176;2023-02-22T10:35:51;95261.11;;;18.09;24.31
69689;BME280;56932;38.402;-96.176;2023-02-22T10:38:18;95252.29;;;18.40;24.46
69689;BME280;56932;38.402;-96.176;2023-02-22T10:40:44;95250.81;;;18.37;24.50
69689;BME280;56932;38.402;-96.176;2023-02-22T10:43:07;95244.80;;;17.99;24.84
69689;BME280;56932;38.402;-96.176;2023-02-22T10:45:33;95234.02;;;18.24;24.58
69689;BME280;56932;38.402;-96.176;2023-02-22T10:47:59;95220.47;;;18.47;24.43
69689;BME280;56932;38.402;-96.176;2023-02-22T10:50:23;95223.19;;;18.50;24.43
69689;BME280;56932;38.402;-96.176;2023-02-22T10:52:48;95222.68;;;18.05;24.67
69689;BME280;56932;38.402;-96.176;2023-02-22T10:55:15;95231.52;;;19.02;23.99
69689;BME280;56932;38.402;-96.176;2023-02-22T10:57:41;95241.35;;;18.58;24.67
69689;BME280;56932;38.402;-96.176;2023-02-22T11:00:14;95243.66;;;18.85;24.14
69689;BME280;56932;38.402;-96.176;2023-02-22T11:02:32;95241.30;;;18.69;24.27
69689;BME280;56932;38.402;-96.176;2023-02-22T11:04:58;95269.74;;;18.67;24.30
69689;BME280;56932;38.402;-96.176;2023-02-22T11:07:24;95297.06;;;18.17;24.84
69689;BME280;56932;38.402;-96.176;2023-02-22T11:09:50;95344.72;;;17.83;24.70
69689;BME280;56932;38.402;-96.176;2023-02-22T11:12:18;95395.42;;;19.10;24.19
69689;BME280;56932;38.402;-96.176;2023-02-22T11:14:39;95403.72;;;19.18;24.27
69689;BME280;56932;38.402;-96.176;2023-02-22T11:17:07;95418.15;;;18.26;24.66
69689;BME280;56932;38.402;-96.176;2023-02-22T11:19:31;95448.28;;;18.93;24.10
69689;BME280;56932;38.402;-96.176;2023-02-22T11:21:58;95472.91;;;18.93;24.14
69689;BME280;56932;38.402;-96.176;2023-02-22T11:24:23;95451.67;;;18.50;24.58
69689;BME280;56932;38.402;-96.176;2023-02-22T11:26:49;95436.64;;;17.91;24.81
69689;BME280;56932;38.402;-96.176;2023-02-22T11:29:19;95436.24;;;18.97;24.58
69689;BME280;56932;38.402;-96.176;2023-02-22T11:31:42;95425.33;;;18.87;24.42
69689;BME280;56932;38.402;-96.176;2023-02-22T11:34:03;95418.53;;;18.61;24.68
69689;BME280;56932;38.402;-96.176;2023-02-22T11:36:32;95411.30;;;18.89;24.52
69689;BME280;56932;38.402;-96.176;2023-02-22T11:38:55;95405.72;;;18.68;24.75
69689;BME280;56932;38.402;-96.176;2023-02-22T11:41:25;95394.25;;;19.29;24.62
69689;BME280;56932;38.402;-96.176;2023-02-22T11:43:47;95386.57;;;17.71;25.24
69689;BME280;56932;38.402;-96.176;2023-02-22T11:46:13;95378.91;;;18.20;25.45
69689;BME280;56932;38.402;-96.176;2023-02-22T11:48:38;95380.74;;;18.43;25.07
69689;BME280;56932;38.402;-96.176;2023-02-22T11:51:13;95368.56;;;18.81;24.77
69689;BME280;56932;38.402;-96.176;2023-02-22T11:53:39;95366.48;;;18.94;24.62
69689;BME280;56932;38.402;-96.176;2023-02-22T11:56:06;95355.66;;;19.08;24.50
69689;BME280;56932;38.402;-96.176;2023-02-22T11:58:31;95360.02;;;18.52;25.03
69689;BME280;56932;38.402;-96.176;2023-02-22T12:00:49;95362.63;;;18.81;24.75
69689;BME280;56932;38.402;-96.176;2023-02-22T12:03:25;95364.44;;;18.88;24.71
69689;BME280;56932;38.402;-96.176;2023-02-22T12:05:46;95367.53;;;18.65;24.87
69689;BME280;56932;38.402;-96.176;2023-02-22T12:08:11;95365.32;;;18.78;24.75
69689;BME280;56932;38.402;-96.176;2023-02-22T12:10:37;95372.43;;;18.92;24.61
69689;BME280;56932;38.402;-96.176;2023-02-22T12:13:03;95374.58;;;18.63;24.70
69689;BME280;56932;38.402;-96.176;2023-02-22T12:15:24;95366.49;;;19.07;24.56
69689;BME280;56932;38.402;-96.176;2023-02-22T12:17:50;95361.39;;;17.99;25.06
69689;BME280;56932;38.402;-96.176;2023-02-22T12:20:16;95360.73;;;18.60;24.97
69689;BME280;56932;38.402;-96.176;2023-02-22T12:22:40;95382.66;;;18.48;25.07
69689;BME280;56932;38.402;-96.176;2023-02-22T12:25:04;95394.26;;;18.19;25.37
69689;BME280;56932;38.402;-96.176;2023-02-22T12:27:29;95403.94;;;18.97;25.07
69689;BME280;56932;38.402;-96.176;2023-02-22T12:29:55;95402.57;;;18.72;24.66
69689;BME280;56932;38.402;-96.176;2023-02-22T12:32:23;95406.32;;;19.32;24.78
69689;BME280;56932;38.402;-96.176;2023-02-22T12:34:46;95412.91;;;18.38;25.09
69689;BME280;56932;38.402;-96.176;2023-02-22T12:37:15;95408.23;;;18.68;25.23
69689;BME280;56932;38.402;-96.176;2023-02-22T12:39:41;95383.29;;;18.03;25.63
69689;BME280;56932;38.402;-96.176;2023-02-22T12:42:01;95356.45;;;18.52;25.20